Time;durP1;ratioP1;P1;durP2;ratioP2;P2;SDS_P1;SDS_P2;PMS_P1;PMS_P2;Temp;Humidity;BMP_temperature;BMP_pressure;BME280_temperature;BME280_humidity;BME280_pressure;Samples;Min_cycle;Max_cycle;Signal;HPM_P1;HPM_P2
2021/11/20 00:00:20;;;;;;;21.17;12.80;;;281.90;2278.40;;;;;;4956817;29;20380;-81
2021/11/20 00:02:47;;;;;;;21.75;12.10;;;281.90;2278.40;;;;;;4956420;29;20550;-81
2021/11/20 00:05:17;;;;;;;26.80;13.25;;;281.90;2278.40;;;;;;4956826;29;20050;-83
2021/11/20 00:07:43;;;;;;;26.13;12.80;;;281.90;2278.40;;;;;;4956832;29;20027;-85
2021/11/20 00:10:11;;;;;;;21.83;12.82;;;281.90;2278.40;;;;;;4939536;29;20542;-84
2021/11/20 00:12:41;;;;;;;23.48;12.32;;;281.90;2278.40;;;;;;4939846;29;20066;-77
2021/11/20 00:15:10;;;;;;;20.23;11.07;;;281.90;2278.40;;;;;;4956527;29;20034;-82
2021/11/20 00:17:36;;;;;;;21.35;13.05;;;281.90;2278.40;;;;;;4941853;29;20063;-82
2021/11/20 00:20:04;;;;;;;19.75;12.52;;;282.00;2278.40;;;;;;4949215;29;20047;-77
2021/11/20 00:22:35;;;;;;;18.95;11.63;;;281.90;2278.40;;;;;;4946663;29;20468;-85
2021/11/20 00:25:09;;;;;;;20.05;11.90;;;281.80;2278.40;;;;;;4939827;29;20023;-85
2021/11/20 00:27:37;;;;;;;24.98;12.40;;;281.80;2278.40;;;;;;4939154;29;20039;-84
2021/11/20 00:32:42;;;;;;;20.23;13.50;;;281.80;2278.40;;;;;;4955405;28;20132;-82
2021/11/20 00:35:12;;;;;;;19.75;11.57;;;281.80;2278.40;;;;;;4939908;29;20034;-81
2021/11/20 00:37:38;;;;;;;17.98;11.65;;;281.70;2278.40;;;;;;4956465;29;20029;-83
2021/11/20 00:40:07;;;;;;;20.83;11.13;;;281.70;2278.40;;;;;;4956261;29;20028;-85
2021/11/20 00:42:33;;;;;;;19.77;12.00;;;281.70;2278.40;;;;;;4955781;29;20110;-77
2021/11/20 00:44:59;;;;;;;17.75;11.20;;;281.70;2278.40;;;;;;4937709;28;20070;-85
2021/11/20 00:47:25;;;;;;;;;;;281.70;2278.40;;;;;;4938411;29;20031;-83
2021/11/20 00:49:51;;;;;;;20.35;11.68;;;281.70;2278.40;;;;;;4938172;29;19911;-78
2021/11/20 00:52:17;;;;;;;20.50;12.60;;;281.70;2278.40;;;;;;4937807;29;20035;-84
2021/11/20 00:54:43;;;;;;;25.92;12.13;;;281.70;2278.40;;;;;;4954805;29;20106;-78
2021/11/20 00:57:10;;;;;;;20.45;12.52;;;281.70;2278.40;;;;;;4937362;29;20055;-85
2021/11/20 00:59:37;;;;;;;20.20;12.52;;;281.70;2278.40;;;;;;4937645;29;20027;-79
2021/11/20 01:02:05;;;;;;;26.75;12.13;;;281.70;2278.40;;;;;;4954744;29;20027;-82
2021/11/20 01:04:32;;;;;;;20.75;11.88;;;281.80;2278.40;;;;;;4938958;29;20054;-79
2021/11/20 01:06:59;;;;;;;23.77;12.70;;;281.70;2278.40;;;;;;4944000;29;20160;-84
2021/11/20 01:09:34;;;;;;;21.83;12.82;;;281.80;2278.40;;;;;;4961281;28;20082;-84
2021/11/20 01:12:10;;;;;;;20.95;12.38;;;281.80;2278.40;;;;;;4942512;29;20122;-84
2021/11/20 01:14:38;;;;;;;19.33;11.77;;;281.80;2278.40;;;;;;4959248;29;20110;-82
2021/11/20 01:17:06;;;;;;;24.65;12.73;;;281.90;2278.40;;;;;;4939098;29;20035;-84
2021/11/20 01:19:34;;;;;;;23.85;12.63;;;281.80;2278.40;;;;;;4938604;29;20054;-84
2021/11/20 01:22:06;;;;;;;23.85;13.50;;;281.80;2278.40;;;;;;4944042;29;20035;-83
2021/11/20 01:24:32;;;;;;;21.80;13.85;;;281.80;2278.40;;;;;;4943548;28;20015;-77
2021/11/20 01:26:59;;;;;;;21.17;11.45;;;281.80;2278.40;;;;;;4950135;28;20026;-85
2021/11/20 01:29:26;;;;;;;21.50;13.52;;;281.80;2278.40;;;;;;4943598;29;20587;-84
2021/11/20 01:31:54;;;;;;;22.13;12.98;;;281.90;2278.40;;;;;;4943735;29;20054;-85
2021/11/20 01:34:23;;;;;;;23.70;13.02;;;281.90;2278.40;;;;;;4964437;28;20027;-85
2021/11/20 01:36:52;;;;;;;25.67;13.23;;;282.00;2278.40;;;;;;4933293;28;20484;-81
2021/11/20 01:39:22;;;;;;;22.00;12.23;;;281.80;2278.40;;;;;;4940333;28;20038;-83
2021/11/20 01:41:56;;;;;;;25.65;13.38;;;281.80;2278.40;;;;;;4945990;28;20070;-84
2021/11/20 01:44:28;;;;;;;22.75;12.38;;;281.70;2278.40;;;;;;4967268;28;20019;-80
2021/11/20 01:47:02;;;;;;;23.45;14.02;;;281.80;2278.40;;;;;;4953109;28;20058;-84
2021/11/20 01:49:37;;;;;;;24.83;13.73;;;281.80;2278.40;;;;;;4946103;29;20395;-83
2021/11/20 01:52:08;;;;;;;31.05;12.55;;;281.70;2278.40;;;;;;4947668;29;20114;-83
2021/11/20 01:54:54;;;;;;;21.33;13.50;;;281.70;2278.40;;;;;;4935119;29;20059;-76
2021/11/20 01:57:42;;;;;;;25.30;13.70;;;281.70;2278.40;;;;;;4946083;29;20031;-78
2021/11/20 02:00:16;;;;;;;23.10;13.68;;;281.70;2278.40;;;;;;4923472;29;20514;-78
2021/11/20 02:03:14;;;;;;;22.52;13.45;;;281.70;2278.40;;;;;;4947290;28;20035;-78
2021/11/20 02:06:03;;;;;;;22.98;13.57;;;281.80;2278.40;;;;;;4947635;29;20098;-87
2021/11/20 02:08:39;;;;;;;21.95;12.25;;;281.80;2278.40;;;;;;4959209;28;20047;-87
2021/11/20 02:11:17;;;;;;;20.95;13.02;;;281.80;2278.40;;;;;;4960540;29;20034;-77
2021/11/20 02:13:44;;;;;;;23.35;12.40;;;281.80;2278.40;;;;;;4942010;29;20027;-87
2021/11/20 02:16:14;;;;;;;26.80;13.35;;;282.00;2278.40;;;;;;4941182;29;20034;-88
2021/11/20 02:18:44;;;;;;;21.50;12.70;;;281.80;2278.40;;;;;;4940702;29;20043;-76
2021/11/20 02:21:37;;;;;;;21.00;12.50;;;281.80;2278.40;;;;;;4939702;29;20502;-77
2021/11/20 02:24:03;;;;;;;24.02;13.85;;;281.80;2278.40;;;;;;4955830;29;20024;-81
2021/11/20 02:26:29;;;;;;;24.15;13.63;;;281.90;2278.40;;;;;;4939650;29;20043;-85
2021/11/20 02:28:57;;;;;;;21.85;13.32;;;281.90;2278.40;;;;;;4939346;29;20110;-81
2021/11/20 02:31:24;;;;;;;19.05;11.85;;;281.80;2278.40;;;;;;4939417;29;20534;-81
2021/11/20 02:33:50;;;;;;;19.92;12.02;;;281.70;2278.40;;;;;;4939827;29;20059;-77
2021/11/20 02:36:22;;;;;;;25.38;12.80;;;281.70;2278.40;;;;;;4956618;28;20027;-77
2021/11/20 02:39:07;;;;;;;19.98;12.38;;;281.70;2278.40;;;;;;4956957;29;20027;-80
2021/11/20 02:41:35;;;;;;;20.60;11.77;;;281.70;2278.40;;;;;;4937369;29;20039;-84
2021/11/20 02:44:03;;;;;;;20.65;12.18;;;281.70;2278.40;;;;;;4939651;29;20020;-85
2021/11/20 02:46:34;;;;;;;22.98;12.75;;;281.70;2278.40;;;;;;4941663;29;20046;-86
2021/11/20 02:49:01;;;;;;;20.60;11.82;;;281.70;2278.40;;;;;;4939659;29;20027;-83
2021/11/20 02:51:32;;;;;;;19.08;10.65;;;281.80;2278.40;;;;;;4939108;29;20046;-80
2021/11/20 02:53:59;;;;;;;19.50;10.70;;;281.80;2278.40;;;;;;4956773;29;20050;-77
2021/11/20 02:56:33;;;;;;;20.27;12.25;;;281.90;2278.40;;;;;;4939377;29;20058;-83
2021/11/20 02:59:00;;;;;;;20.75;11.32;;;281.80;2278.40;;;;;;4956876;29;20153;-88
2021/11/20 03:01:35;;;;;;;17.70;10.30;;;281.80;2278.40;;;;;;4939474;29;20503;-89
2021/11/20 03:04:01;;;;;;;19.65;10.55;;;281.80;2278.40;;;;;;4956312;29;20019;-76
2021/11/20 03:06:28;;;;;;;20.52;11.30;;;281.80;2278.40;;;;;;4939467;29;20031;-89
2021/11/20 03:08:54;;;;;;;20.15;11.40;;;281.90;2278.40;;;;;;4938942;29;20043;-84
2021/11/20 03:11:20;;;;;;;18.42;11.45;;;281.80;2278.40;;;;;;4939049;29;20475;-89
2021/11/20 03:13:50;;;;;;;18.48;11.05;;;281.80;2278.40;;;;;;4938819;29;20031;-77
2021/11/20 03:16:15;;;;;;;20.42;11.10;;;281.80;2278.40;;;;;;4938901;29;20027;-77
2021/11/20 03:18:41;;;;;;;24.00;11.55;;;281.70;2278.40;;;;;;4946252;28;20039;-77
2021/11/20 03:21:07;;;;;;;;;;;281.70;2278.40;;;;;;4947326;28;20114;-79
2021/11/20 03:23:40;;;;;;;19.88;11.77;;;281.70;2278.40;;;;;;4965221;28;20259;-78
2021/11/20 03:26:06;;;;;;;21.92;11.65;;;281.70;2278.40;;;;;;4956994;29;20487;-80
2021/11/20 03:28:32;;;;;;;18.45;10.20;;;281.80;2278.40;;;;;;4939648;29;20115;-82
2021/11/20 03:30:58;;;;;;;15.95;9.45;;;281.60;2278.40;;;;;;4940419;29;20109;-87
2021/11/20 03:33:24;;;;;;;17.50;10.70;;;281.70;2278.40;;;;;;4948423;28;20038;-77
2021/11/20 03:35:50;;;;;;;21.48;11.55;;;281.80;2278.40;;;;;;4961855;28;20012;-76
2021/11/20 03:38:16;;;;;;;15.82;9.85;;;281.80;2278.40;;;;;;4977216;28;20027;-76
2021/11/20 03:40:42;;;;;;;;;;;281.70;2278.40;;;;;;4949832;28;20138;-76
2021/11/20 03:43:09;;;;;;;18.63;10.73;;;281.70;2278.40;;;;;;4947821;28;19906;-82
2021/11/20 03:45:37;;;;;;;19.10;12.00;;;281.70;2278.40;;;;;;4947535;28;20509;-78
2021/11/20 03:48:05;;;;;;;17.38;10.65;;;281.60;2278.40;;;;;;4965950;28;20102;-76
2021/11/20 03:50:31;;;;;;;16.55;10.65;;;281.70;2278.40;;;;;;4964736;28;20818;-89
2021/11/20 03:52:57;;;;;;;16.52;10.15;;;281.60;2278.40;;;;;;4939214;29;20118;-82
2021/11/20 03:55:36;;;;;;;18.10;10.32;;;281.60;2278.40;;;;;;4938886;29;20102;-80
2021/11/20 03:58:03;;;;;;;16.55;10.52;;;281.60;2278.40;;;;;;4946032;28;20027;-90
2021/11/20 04:00:33;;;;;;;17.15;10.30;;;281.70;2278.40;;;;;;4948108;28;20030;-77
2021/11/20 04:03:00;;;;;;;16.73;10.75;;;281.60;2278.40;;;;;;4948156;28;20525;-77
2021/11/20 04:05:29;;;;;;;19.52;10.82;;;281.60;2278.40;;;;;;4950754;28;20566;-89
2021/11/20 04:07:55;;;;;;;16.70;10.55;;;281.70;2278.40;;;;;;4944904;28;20391;-85
2021/11/20 04:10:21;;;;;;;17.23;9.48;;;281.70;2278.40;;;;;;4967312;28;20036;-89
2021/11/20 04:12:49;;;;;;;22.13;10.13;;;281.70;2278.40;;;;;;4948592;28;20049;-90
2021/11/20 04:15:21;;;;;;;19.25;9.95;;;281.80;2278.40;;;;;;4955820;29;20039;-89
2021/11/20 04:17:46;;;;;;;18.08;9.95;;;281.80;2278.40;;;;;;4938589;29;20499;-82
2021/11/20 04:20:16;;;;;;;19.08;10.90;;;281.80;2278.40;;;;;;4955744;29;20042;-77
2021/11/20 04:22:41;;;;;;;19.08;10.20;;;281.80;2278.40;;;;;;4941677;28;20553;-90
2021/11/20 04:25:09;;;;;;;17.45;10.32;;;281.70;2278.40;;;;;;4948610;28;20035;-77
2021/11/20 04:27:35;;;;;;;16.88;10.48;;;281.80;2278.40;;;;;;4946856;28;20031;-81
2021/11/20 04:30:02;;;;;;;18.48;10.15;;;281.70;2278.40;;;;;;4949306;28;20092;-88
2021/11/20 04:32:28;;;;;;;15.48;9.80;;;281.80;2278.40;;;;;;4938922;29;20027;-87
2021/11/20 04:34:54;;;;;;;17.90;10.00;;;281.80;2278.40;;;;;;4946811;28;20522;-77
2021/11/20 04:37:19;;;;;;;18.27;9.60;;;281.80;2278.40;;;;;;4955912;29;20031;-77
2021/11/20 04:39:45;;;;;;;;;;;281.80;2278.40;;;;;;4939357;29;20023;-83
2021/11/20 04:42:11;;;;;;;15.40;9.40;;;281.80;2278.40;;;;;;4938709;29;19921;-82
2021/11/20 04:44:37;;;;;;;;;;;281.70;2278.40;;;;;;4939129;29;20035;-78
2021/11/20 04:47:02;;;;;;;17.98;9.48;;;281.70;2278.40;;;;;;4955614;29;19998;-88
2021/11/20 04:49:29;;;;;;;18.05;10.38;;;281.70;2278.40;;;;;;4938639;29;20137;-82
2021/11/20 04:51:55;;;;;;;16.30;9.93;;;281.80;2278.40;;;;;;4955540;29;20479;-87
2021/11/20 04:54:21;;;;;;;17.40;9.98;;;281.90;2278.40;;;;;;4959678;28;20023;-80
2021/11/20 04:56:47;;;;;;;21.58;9.77;;;281.80;2278.40;;;;;;4940896;28;20051;-82
2021/11/20 04:59:12;;;;;;;;;;;281.80;2278.40;;;;;;4949394;28;20019;-77
2021/11/20 05:01:38;;;;;;;16.73;9.43;;;281.80;2278.40;;;;;;4946200;28;19986;-87
2021/11/20 05:04:04;;;;;;;15.27;8.90;;;281.70;2278.40;;;;;;4938003;29;20074;-77
2021/11/20 05:06:30;;;;;;;;;;;281.70;2278.40;;;;;;4949395;28;20057;-88
2021/11/20 05:09:02;;;;;;;17.80;10.23;;;281.60;2278.40;;;;;;4965883;28;20493;-88
2021/11/20 05:11:30;;;;;;;17.67;10.82;;;256.90;2252.80;;;;;;4960072;28;20038;-86
2021/11/20 05:13:57;;;;;;;19.85;11.02;;;281.60;2278.40;;;;;;4947991;28;20054;-89
2021/11/20 05:16:23;;;;;;;17.45;10.77;;;281.60;2278.40;;;;;;4966098;28;20463;-89
2021/11/20 05:18:49;;;;;;;20.50;11.13;;;256.90;2252.80;;;;;;4938299;29;20144;-84
2021/11/20 05:21:16;;;;;;;23.25;10.85;;;256.90;2252.80;;;;;;4955143;29;20481;-82
2021/11/20 05:23:42;;;;;;;18.45;11.50;;;256.80;2252.80;;;;;;4948343;28;20034;-78
2021/11/20 05:26:14;;;;;;;21.50;13.60;;;256.70;2252.80;;;;;;4938222;29;20042;-78
2021/11/20 05:28:45;;;;;;;21.13;11.05;;;256.70;2252.80;;;;;;4938215;29;20107;-83
2021/11/20 05:31:11;;;;;;;19.08;10.57;;;256.70;2252.80;;;;;;4945889;28;20029;-82
2021/11/20 05:33:39;;;;;;;25.48;11.68;;;256.60;2252.80;;;;;;4951055;28;20070;-89
2021/11/20 05:36:06;;;;;;;19.67;11.20;;;256.50;2252.80;;;;;;4963706;28;20039;-83
2021/11/20 05:38:32;;;;;;;17.30;10.73;;;256.60;2252.80;;;;;;4947311;28;20174;-78
2021/11/20 05:40:58;;;;;;;18.15;10.88;;;256.60;2252.80;;;;;;4949314;28;20086;-87
2021/11/20 05:43:24;;;;;;;20.10;10.93;;;256.50;2252.80;;;;;;4946252;28;20022;-83
2021/11/20 05:45:56;;;;;;;39.33;18.10;;;256.50;2252.80;;;;;;4947429;28;20107;-87
2021/11/20 05:48:21;;;;;;;28.33;14.85;;;256.50;2252.80;;;;;;4946164;28;20047;-77
2021/11/20 05:50:49;;;;;;;19.00;10.57;;;256.50;2252.80;;;;;;4965018;28;20086;-77
2021/11/20 05:53:21;;;;;;;20.17;11.45;;;256.50;2252.80;;;;;;4951268;28;20026;-89
2021/11/20 05:55:49;;;;;;;19.67;12.18;;;256.50;2252.80;;;;;;4933657;28;20101;-88
2021/11/20 05:58:17;;;;;;;23.50;10.85;;;256.60;2252.80;;;;;;4949714;29;20019;-89
2021/11/20 06:00:49;;;;;;;18.15;11.13;;;256.60;2252.80;;;;;;4951516;28;20035;-77
2021/11/20 06:03:17;;;;;;;18.40;10.93;;;256.70;2252.80;;;;;;4958648;28;20110;-90
2021/11/20 06:05:45;;;;;;;19.15;11.15;;;256.60;2252.80;;;;;;4958624;29;20049;-89
2021/11/20 06:08:10;;;;;;;17.30;10.02;;;256.50;2252.80;;;;;;4941439;29;20559;-90
2021/11/20 06:10:39;;;;;;;17.35;10.40;;;256.60;2252.80;;;;;;4940590;29;20134;-81
2021/11/20 06:13:09;;;;;;;19.17;10.00;;;256.70;2252.80;;;;;;4958403;29;20055;-89
2021/11/20 06:15:35;;;;;;;18.85;10.18;;;256.60;2252.80;;;;;;4940959;29;20023;-76
2021/11/20 06:18:02;;;;;;;23.77;11.90;;;256.70;2252.80;;;;;;4940912;29;20396;-89
2021/11/20 06:20:28;;;;;;;24.77;14.07;;;256.70;2252.80;;;;;;4949781;28;20035;-78
2021/11/20 06:22:54;;;;;;;24.58;12.63;;;256.70;2252.80;;;;;;4967617;28;20069;-90
2021/11/20 06:25:21;;;;;;;19.77;12.45;;;256.90;2252.80;;;;;;4943309;28;20110;-85
2021/11/20 06:27:46;;;;;;;17.13;11.18;;;256.90;2252.80;;;;;;4949885;28;20383;-77
2021/11/20 06:30:16;;;;;;;23.38;11.20;;;256.90;2252.80;;;;;;4949518;28;20023;-82
2021/11/20 06:32:43;;;;;;;17.48;11.10;;;281.60;2278.40;;;;;;4949285;28;20039;-84
2021/11/20 06:35:14;;;;;;;14.40;9.50;;;256.90;2252.80;;;;;;4952071;28;20065;-86
2021/11/20 06:37:42;;;;;;;17.92;11.50;;;281.70;2278.40;;;;;;4966618;28;20019;-89
2021/11/20 06:40:11;;;;;;;18.73;10.82;;;256.90;2252.80;;;;;;4948845;28;20042;-86
2021/11/20 06:42:37;;;;;;;17.13;10.27;;;256.90;2252.80;;;;;;4940615;29;20508;-80
2021/11/20 06:45:06;;;;;;;20.50;9.98;;;256.90;2252.80;;;;;;4941005;29;20038;-85
2021/11/20 06:47:32;;;;;;;17.08;10.55;;;256.90;2252.80;;;;;;4940771;29;20035;-87
2021/11/20 06:49:58;;;;;;;16.88;10.18;;;256.90;2252.80;;;;;;4966201;28;20357;-87
2021/11/20 06:52:24;;;;;;;17.23;10.65;;;281.60;2278.40;;;;;;4949619;28;20023;-87
2021/11/20 06:54:50;;;;;;;21.98;12.70;;;256.90;2252.80;;;;;;4961226;28;20023;-77
2021/11/20 06:57:26;;;;;;;;;;;281.60;2278.40;;;;;;4954517;28;20003;-85
2021/11/20 07:02:37;;;;;;;20.20;11.98;;;281.70;2278.40;;;;;;4966411;28;20395;-76
2021/11/20 07:05:05;;;;;;;21.00;12.25;;;281.70;2278.40;;;;;;4950343;28;20066;-80
2021/11/20 07:07:34;;;;;;;17.63;10.07;;;281.70;2278.40;;;;;;4946593;28;20062;-85
2021/11/20 07:10:01;;;;;;;20.52;11.60;;;281.60;2278.40;;;;;;4956019;28;20036;-83
2021/11/20 07:12:27;;;;;;;21.17;12.27;;;281.70;2278.40;;;;;;4956029;29;20016;-83
2021/11/20 07:14:52;;;;;;;19.52;12.18;;;281.60;2278.40;;;;;;4939236;29;20122;-84
2021/11/20 07:17:19;;;;;;;23.48;13.50;;;281.70;2278.40;;;;;;4956415;29;20030;-82
2021/11/20 07:19:45;;;;;;;24.30;13.50;;;281.80;2278.40;;;;;;4950298;28;20497;-82
2021/11/20 07:22:11;;;;;;;16.45;10.57;;;281.60;2278.40;;;;;;4964691;28;20039;-77
2021/11/20 07:24:37;;;;;;;22.17;11.82;;;281.70;2278.40;;;;;;4946384;28;20045;-80
2021/11/20 07:27:03;;;;;;;21.40;11.75;;;281.70;2278.40;;;;;;4952644;28;20394;-78
2021/11/20 07:29:29;;;;;;;45.53;22.80;;;281.80;2278.40;;;;;;4950160;28;20113;-79
2021/11/20 07:31:55;;;;;;;23.02;14.60;;;281.90;2278.40;;;;;;4948936;28;20020;-77
2021/11/20 07:34:21;;;;;;;33.95;19.58;;;281.80;2278.40;;;;;;4949661;28;20031;-77
2021/11/20 07:36:47;;;;;;;;;;;281.90;2278.40;;;;;;4965479;28;20074;-77
2021/11/20 07:39:15;;;;;;;13.52;9.32;;;281.90;2278.40;;;;;;4947619;28;20401;-83
2021/11/20 07:41:41;;;;;;;25.55;13.68;;;281.90;2278.40;;;;;;4948483;28;20042;-77
2021/11/20 07:44:07;;;;;;;27.27;14.15;;;282.00;2278.40;;;;;;4950091;28;20533;-77
2021/11/20 07:46:34;;;;;;;21.77;11.88;;;282.20;2278.40;;;;;;4956384;29;20419;-86
2021/11/20 07:49:00;;;;;;;16.20;10.52;;;282.20;2278.40;;;;;;4939396;29;20020;-82
2021/11/20 07:51:27;;;;;;;15.65;9.75;;;282.30;2278.40;;;;;;4939186;29;20023;-84
2021/11/20 07:53:53;;;;;;;15.32;9.35;;;282.40;2278.40;;;;;;4939094;29;20031;-80
2021/11/20 07:56:20;;;;;;;18.20;10.05;;;282.40;2278.40;;;;;;4939236;29;20027;-87
2021/11/20 07:58:47;;;;;;;14.00;9.52;;;282.50;2278.40;;;;;;4939429;29;20078;-78
2021/11/20 08:01:15;;;;;;;16.48;9.88;;;282.40;2278.40;;;;;;4939294;29;20032;-76
2021/11/20 08:03:41;;;;;;;18.88;10.63;;;282.40;2278.40;;;;;;4936313;28;20023;-76
2021/11/20 08:06:07;;;;;;;15.02;9.13;;;282.40;2278.40;;;;;;4949057;28;20572;-77
2021/11/20 08:08:34;;;;;;;19.27;11.45;;;282.30;2278.40;;;;;;4938955;28;20106;-77
2021/11/20 08:11:00;;;;;;;19.60;10.82;;;282.30;2278.40;;;;;;4961371;28;20090;-86
2021/11/20 08:13:26;;;;;;;14.98;10.15;;;282.50;2278.40;;;;;;4947042;28;20043;-79
2021/11/20 08:15:52;;;;;;;;;;;307.20;2304.00;;;;;;4975382;28;20023;-78
2021/11/20 08:18:18;;;;;;;14.93;9.97;;;282.50;2278.40;;;;;;4957933;28;19910;-77
2021/11/20 08:20:45;;;;;;;;;;;282.50;2278.40;;;;;;4958723;28;20039;-78
2021/11/20 08:23:13;;;;;;;;;;;282.50;2278.40;;;;;;4976362;28;19965;-87
2021/11/20 08:25:40;;;;;;;24.25;11.60;;;282.50;2278.40;;;;;;4958487;28;20318;-81
2021/11/20 08:28:07;;;;;;;20.13;12.23;;;307.20;2304.00;;;;;;4958130;28;20023;-82
2021/11/20 08:30:34;;;;;;;19.45;12.38;;;307.20;2304.00;;;;;;4975648;28;20031;-82
2021/11/20 08:33:01;;;;;;;21.77;12.52;;;307.20;2304.00;;;;;;4941440;29;20106;-81
2021/11/20 08:35:28;;;;;;;21.30;11.82;;;282.50;2278.40;;;;;;4956190;29;20109;-83
2021/11/20 08:37:55;;;;;;;22.90;12.98;;;307.20;2304.00;;;;;;4956079;29;20023;-82
2021/11/20 08:40:32;;;;;;;17.63;11.10;;;307.30;2304.00;;;;;;4938933;29;20059;-87
2021/11/20 08:43:00;;;;;;;18.98;11.20;;;307.40;2304.00;;;;;;4956018;29;20054;-78
2021/11/20 08:45:31;;;;;;;18.10;10.80;;;307.40;2304.00;;;;;;4956017;28;20019;-86
2021/11/20 08:47:57;;;;;;;16.38;9.48;;;307.40;2304.00;;;;;;4955620;29;20046;-83
2021/11/20 08:50:30;;;;;;;16.65;10.05;;;307.40;2304.00;;;;;;4938718;29;20035;-78
2021/11/20 08:52:56;;;;;;;19.00;10.70;;;307.50;2304.00;;;;;;4953204;29;20063;-89
2021/11/20 08:55:23;;;;;;;15.98;9.30;;;307.60;2304.00;;;;;;4955860;29;20378;-79
2021/11/20 08:57:49;;;;;;;17.02;10.88;;;307.70;2304.00;;;;;;4938347;29;20106;-87
2021/11/20 09:00:42;;;;;;;16.75;10.25;;;307.70;2304.00;;;;;;4938839;29;20034;-90
2021/11/20 09:03:33;;;;;;;14.88;8.95;;;307.70;2304.00;;;;;;4955885;29;20547;-84
2021/11/20 09:06:08;;;;;;;16.60;9.65;;;307.90;2304.00;;;;;;4954921;29;20046;-85
2021/11/20 09:08:47;;;;;;;19.48;10.15;;;308.10;2304.00;;;;;;4942151;28;20031;-77
2021/11/20 09:11:21;;;;;;;18.65;10.75;;;332.80;2329.60;;;;;;4957488;28;20027;-84
2021/11/20 09:13:55;;;;;;;18.15;9.85;;;332.80;2329.60;;;;;;4975404;28;20027;-78
2021/11/20 09:16:25;;;;;;;16.75;10.18;;;332.80;2329.60;;;;;;4974971;28;20054;-78
2021/11/20 09:18:52;;;;;;;15.07;9.65;;;333.00;2329.60;;;;;;4975068;28;20023;-85
2021/11/20 09:21:18;;;;;;;18.70;9.65;;;333.00;2329.60;;;;;;4975059;28;20114;-78
2021/11/20 09:23:45;;;;;;;15.13;8.88;;;333.20;2329.60;;;;;;4957323;28;20030;-78
2021/11/20 09:26:15;;;;;;;12.70;8.30;;;333.30;2329.60;;;;;;4976500;28;20035;-78
2021/11/20 09:28:41;;;;;;;18.00;10.63;;;333.50;2329.60;;;;;;4961702;28;20019;-83
2021/11/20 09:31:09;;;;;;;19.30;11.68;;;333.50;2329.60;;;;;;4979064;28;20463;-80
2021/11/20 09:33:37;;;;;;;17.27;10.45;;;333.40;2329.60;;;;;;4958525;28;20023;-79
2021/11/20 09:36:04;;;;;;;14.23;9.27;;;333.30;2329.60;;;;;;4978873;28;20110;-82
2021/11/20 09:38:30;;;;;;;20.75;10.55;;;333.40;2329.60;;;;;;4961256;28;20109;-81
2021/11/20 09:41:13;;;;;;;22.10;12.65;;;333.50;2329.60;;;;;;4961913;28;20039;-88
2021/11/20 09:43:41;;;;;;;24.17;14.93;;;333.60;2329.60;;;;;;4961420;28;20081;-88
2021/11/20 09:46:48;;;;;;;26.83;12.52;;;333.60;2329.60;;;;;;4961185;28;20035;-83
2021/11/20 09:49:36;;;;;;;19.60;10.98;;;358.40;2329.60;;;;;;4900587;29;20041;-78
2021/11/20 09:52:04;;;;;;;21.73;11.90;;;333.70;2329.60;;;;;;4884466;29;20041;-88
2021/11/20 09:54:35;;;;;;;17.65;10.73;;;333.50;2329.60;;;;;;4884794;29;20035;-84
2021/11/20 09:57:18;;;;;;;16.75;10.63;;;333.60;2329.60;;;;;;4900006;29;20043;-88
2021/11/20 09:59:49;;;;;;;21.48;10.93;;;358.40;2329.60;;;;;;4899858;29;20079;-77
2021/11/20 10:02:27;;;;;;;21.05;10.43;;;358.60;2329.60;;;;;;4884174;29;20043;-81
2021/11/20 10:05:04;;;;;;;19.20;8.98;;;358.80;2329.60;;;;;;4884540;29;20033;-81
2021/11/20 10:07:37;;;;;;;;;;;358.80;2329.60;;;;;;4900122;29;20482;-78
2021/11/20 10:10:15;;;;;;;12.40;7.68;;;358.70;2329.60;;;;;;4898064;29;19920;-82
2021/11/20 10:13:21;;;;;;;14.05;8.93;;;358.90;2329.60;;;;;;4904463;29;20065;-77
2021/11/20 10:16:13;;;;;;;15.63;9.25;;;359.00;2329.60;;;;;;4857121;29;20065;-79
2021/11/20 10:18:51;;;;;;;17.13;10.77;;;358.80;2329.60;;;;;;4851706;29;20053;-84
2021/11/20 10:21:24;;;;;;;13.70;8.95;;;358.90;2329.60;;;;;;4851493;29;20058;-84
2021/11/20 10:24:31;;;;;;;17.15;9.65;;;359.10;2329.60;;;;;;4828132;29;20042;-81
2021/11/20 10:27:42;;;;;;;13.52;8.88;;;359.20;2329.60;;;;;;4853017;29;20017;-82
2021/11/20 10:30:25;;;;;;;16.27;8.65;;;359.10;2329.60;;;;;;4840565;29;20138;-80
2021/11/20 10:33:20;;;;;;;13.55;8.40;;;359.10;2329.60;;;;;;4843031;29;20101;-81
2021/11/20 10:36:06;;;;;;;15.95;9.05;;;358.90;2329.60;;;;;;4824519;29;20125;-81
2021/11/20 10:38:45;;;;;;;13.73;8.33;;;358.80;2329.60;;;;;;4809033;29;20500;-77
2021/11/20 10:41:35;;;;;;;17.02;8.68;;;358.70;2329.60;;;;;;4824573;29;20475;-82
2021/11/20 10:44:17;;;;;;;15.95;9.40;;;358.40;2329.60;;;;;;4825115;29;20135;-81
2021/11/20 10:47:00;;;;;;;17.25;9.68;;;358.60;2329.60;;;;;;4824863;29;20045;-76
2021/11/20 10:49:52;;;;;;;18.65;9.50;;;358.50;2329.60;;;;;;4825483;29;20109;-82
2021/11/20 10:52:39;;;;;;;12.98;8.70;;;358.80;2329.60;;;;;;4877116;29;20067;-78
2021/11/20 10:55:29;;;;;;;13.85;9.27;;;358.90;2329.60;;;;;;4880338;29;20117;-80
2021/11/20 10:58:30;;;;;;;19.70;11.45;;;358.80;2329.60;;;;;;4864203;29;20068;-78
2021/11/20 11:01:13;;;;;;;19.00;12.27;;;358.70;2329.60;;;;;;4880257;29;20121;-79
2021/11/20 11:03:57;;;;;;;18.92;11.57;;;358.80;2329.60;;;;;;4879659;29;20037;-78
2021/11/20 11:06:34;;;;;;;17.23;10.13;;;358.60;2329.60;;;;;;4878331;29;20039;-80
2021/11/20 11:09:20;;;;;;;12.90;7.72;;;358.40;2329.60;;;;;;4878809;29;20051;-81
2021/11/20 11:12:18;;;;;;;17.88;9.00;;;333.70;2329.60;;;;;;4899803;28;20035;-79
2021/11/20 11:14:44;;;;;;;13.15;9.05;;;333.60;2329.60;;;;;;4956480;28;20490;-82
2021/11/20 11:17:44;;;;;;;17.15;9.85;;;333.60;2329.60;;;;;;4976351;28;20086;-82
2021/11/20 11:20:18;;;;;;;17.35;10.00;;;333.60;2329.60;;;;;;4977213;28;20058;-77
2021/11/20 11:22:49;;;;;;;23.73;10.98;;;333.70;2329.60;;;;;;4959374;28;20039;-82
2021/11/20 11:25:26;;;;;;;16.95;10.02;;;333.60;2329.60;;;;;;4959381;28;20031;-79
2021/11/20 11:28:30;;;;;;;19.45;10.45;;;333.70;2329.60;;;;;;4959032;28;20121;-83
2021/11/20 11:31:20;;;;;;;18.70;10.77;;;333.60;2329.60;;;;;;4959407;28;20082;-82
2021/11/20 11:34:19;;;;;;;18.88;10.80;;;333.60;2329.60;;;;;;4938441;29;20031;-80
2021/11/20 11:37:02;;;;;;;23.35;15.32;;;333.50;2329.60;;;;;;4956854;29;20498;-81
2021/11/20 11:39:40;;;;;;;23.50;15.65;;;333.50;2329.60;;;;;;4956719;29;20054;-77
2021/11/20 11:42:11;;;;;;;30.25;17.10;;;333.40;2329.60;;;;;;4956614;29;20035;-78
2021/11/20 11:44:52;;;;;;;21.90;14.90;;;333.40;2329.60;;;;;;4956738;29;20473;-82
2021/11/20 11:47:36;;;;;;;16.08;9.35;;;333.40;2329.60;;;;;;4956644;29;20153;-78
2021/11/20 11:50:24;;;;;;;17.00;9.68;;;333.30;2329.60;;;;;;4939383;29;20452;-78
2021/11/20 11:52:58;;;;;;;16.77;11.30;;;333.40;2329.60;;;;;;4956460;29;20086;-81
2021/11/20 11:55:30;;;;;;;22.25;12.65;;;333.30;2329.60;;;;;;4939106;29;20059;-76
2021/11/20 11:58:20;;;;;;;35.38;19.13;;;333.40;2329.60;;;;;;4939111;29;20031;-77
2021/11/20 12:00:49;;;;;;;32.33;17.63;;;333.50;2329.60;;;;;;4939411;29;20031;-77
2021/11/20 12:03:29;;;;;;;23.08;13.88;;;333.60;2329.60;;;;;;4939317;29;20062;-84
2021/11/20 12:06:16;;;;;;;23.45;12.20;;;333.60;2329.60;;;;;;4956202;29;20460;-78
2021/11/20 12:08:45;;;;;;;;;;;333.70;2329.60;;;;;;4961593;28;20507;-78
2021/11/20 12:11:32;;;;;;;20.95;10.90;;;333.60;2329.60;;;;;;4938538;29;19910;-77
2021/11/20 12:14:33;;;;;;;19.95;10.27;;;333.60;2329.60;;;;;;4965048;28;20240;-76
2021/11/20 12:17:24;;;;;;;22.95;14.50;;;333.40;2329.60;;;;;;4948035;28;20049;-77
2021/11/20 12:20:12;;;;;;;22.10;11.73;;;333.60;2329.60;;;;;;4896194;29;20146;-77
2021/11/20 12:22:56;;;;;;;22.58;13.48;;;333.40;2329.60;;;;;;4888251;29;20730;-77
2021/11/20 12:25:37;;;;;;;19.17;10.98;;;333.40;2329.60;;;;;;4896344;29;20424;-78
2021/11/20 12:28:07;;;;;;;18.33;10.75;;;333.40;2329.60;;;;;;4897029;29;20060;-79
2021/11/20 12:30:33;;;;;;;14.52;10.05;;;333.40;2329.60;;;;;;4881102;29;20033;-78
2021/11/20 12:33:34;;;;;;;15.43;9.23;;;333.40;2329.60;;;;;;4895228;29;20055;-78